Time;durP1;ratioP1;P1;durP2;ratioP2;P2;SDS_P1;SDS_P2;PMS_P1;PMS_P2;Temp;Humidity;BMP_temperature;BMP_pressure;BME280_temperature;BME280_humidity;BME280_pressure;Samples;Min_cycle;Max_cycle;Signal;HPM_P1;HPM_P2
2021/08/26 00:08:12;;;;;;;;;23.50;20.00;;;;;;;;4907933;28;45560;-78
2021/08/26 00:10:38;;;;;;;;;23.50;18.25;;;;;;;;4906507;28;45408;-78
2021/08/26 00:13:06;;;;;;;;;22.50;20.75;;;;;;;;4960114;28;45529;-78
2021/08/26 00:15:32;;;;;;;;;16.75;15.50;;;;;;;;5001883;28;45566;-78
2021/08/26 00:17:58;;;;;;;;;19.75;18.75;;;;;;;;5005256;28;45209;-78
2021/08/26 00:20:25;;;;;;;;;22.75;20.75;;;;;;;;5017619;28;45333;-78
2021/08/26 00:22:50;;;;;;;;;23.50;19.00;;;;;;;;5014982;28;45658;-79
2021/08/26 00:25:16;;;;;;;;;20.00;20.00;;;;;;;;5021253;28;45286;-80
2021/08/26 00:27:41;;;;;;;;;24.33;20.00;;;;;;;;5020914;28;45234;-79
2021/08/26 00:30:06;;;;;;;;;19.50;19.50;;;;;;;;5011522;28;45532;-79
2021/08/26 00:32:31;;;;;;;;;23.75;20.50;;;;;;;;5001228;28;45460;-79
2021/08/26 00:34:57;;;;;;;;;23.33;18.67;;;;;;;;5016688;28;45505;-79
2021/08/26 00:37:22;;;;;;;;;23.33;19.67;;;;;;;;5014597;28;45581;-79
2021/08/26 00:39:47;;;;;;;;;23.33;20.33;;;;;;;;5000925;28;45505;-79
2021/08/26 00:42:12;;;;;;;;;23.00;18.33;;;;;;;;5001322;28;45430;-79
2021/08/26 00:44:38;;;;;;;;;20.67;19.33;;;;;;;;5003324;28;45273;-79
2021/08/26 00:47:03;;;;;;;;;16.75;14.50;;;;;;;;5011728;28;45947;-79
2021/08/26 00:49:31;;;;;;;;;19.00;17.75;;;;;;;;5000854;28;45827;-79
2021/08/26 00:51:58;;;;;;;;;17.50;17.50;;;;;;;;4994944;28;46111;-79
2021/08/26 00:54:23;;;;;;;;;20.50;17.00;;;;;;;;5001284;28;45776;-79
2021/08/26 00:56:48;;;;;;;;;18.33;16.33;;;;;;;;5017417;28;45300;-78
2021/08/26 00:59:13;;;;;;;;;22.00;19.33;;;;;;;;5008374;28;45280;-79
2021/08/26 01:01:44;;;;;;;;;16.25;12.50;;;;;;;;5007543;28;45194;-79
2021/08/26 01:04:15;;;;;;;;;16.00;14.50;;;;;;;;5020614;28;45459;-79
2021/08/26 01:06:46;;;;;;;;;15.00;14.75;;;;;;;;5018128;28;45241;-79
2021/08/26 01:09:13;;;;;;;;;19.00;14.00;;;;;;;;5000573;28;45443;-78
2021/08/26 01:11:41;;;;;;;;;22.50;15.25;;;;;;;;5000762;28;45389;-79
2021/08/26 01:14:09;;;;;;;;;15.00;14.75;;;;;;;;5002258;28;45517;-78
2021/08/26 01:16:38;;;;;;;;;10.25;10.25;;;;;;;;4982900;28;45397;-79
2021/08/26 01:19:03;;;;;;;;;16.50;11.00;;;;;;;;5016370;28;45275;-79
2021/08/26 01:21:29;;;;;;;;;14.67;12.33;;;;;;;;5010966;28;45260;-79
2021/08/26 01:23:56;;;;;;;;;19.00;13.25;;;;;;;;5020130;28;45207;-79
2021/08/26 01:26:23;;;;;;;;;12.25;12.00;;;;;;;;5020566;28;45442;-79
2021/08/26 01:28:50;;;;;;;;;14.75;12.25;;;;;;;;5020327;28;45436;-79
2021/08/26 01:31:17;;;;;;;;;11.75;10.75;;;;;;;;4994422;28;47404;-79
2021/08/26 01:33:42;;;;;;;;;12.00;9.00;;;;;;;;4994433;28;45385;-79
2021/08/26 01:36:07;;;;;;;;;11.67;11.33;;;;;;;;5000601;28;45218;-79
2021/08/26 01:38:33;;;;;;;;;10.50;10.50;;;;;;;;5013914;28;45568;-79
2021/08/26 01:40:58;;;;;;;;;11.00;11.00;;;;;;;;5020124;28;45201;-79
2021/08/26 01:43:23;;;;;;;;;8.00;8.00;;;;;;;;5020324;28;45301;-79
2021/08/26 01:45:49;;;;;;;;;9.00;9.00;;;;;;;;5003758;28;45524;-79
2021/08/26 01:48:17;;;;;;;;;16.00;12.00;;;;;;;;5006804;28;45602;-79
2021/08/26 01:50:46;;;;;;;;;8.00;8.00;;;;;;;;5003967;28;46270;-78
2021/08/26 01:53:12;;;;;;;;;13.75;10.50;;;;;;;;5000560;28;45397;-79
2021/08/26 01:55:37;;;;;;;;;9.25;9.25;;;;;;;;5000097;28;45480;-79
2021/08/26 01:58:03;;;;;;;;;9.50;8.00;;;;;;;;5000440;28;45199;-79
2021/08/26 02:00:28;;;;;;;;;9.33;8.00;;;;;;;;5001780;28;45265;-78
2021/08/26 02:02:53;;;;;;;;;10.00;8.75;;;;;;;;5000829;28;45230;-79
2021/08/26 02:05:18;;;;;;;;;11.75;8.75;;;;;;;;5010630;28;45202;-79
2021/08/26 02:07:45;;;;;;;;;9.25;8.25;;;;;;;;4999892;28;45164;-79
2021/08/26 02:10:10;;;;;;;;;12.25;8.00;;;;;;;;5000286;28;45546;-79
2021/08/26 02:12:36;;;;;;;;;11.67;11.00;;;;;;;;5006579;28;45275;-79
2021/08/26 02:15:01;;;;;;;;;11.67;9.00;;;;;;;;5000275;28;45590;-79
2021/08/26 02:17:26;;;;;;;;;13.33;12.00;;;;;;;;4999816;28;45842;-79
2021/08/26 02:19:51;;;;;;;;;11.75;10.25;;;;;;;;5008194;28;46246;-79
2021/08/26 02:22:17;;;;;;;;;16.67;10.67;;;;;;;;4999932;28;45366;-78
2021/08/26 02:24:42;;;;;;;;;16.00;12.00;;;;;;;;4999821;28;45514;-78
2021/08/26 02:27:07;;;;;;;;;10.67;9.33;;;;;;;;4999877;28;45396;-79
2021/08/26 02:29:32;;;;;;;;;16.33;13.00;;;;;;;;4999471;28;46018;-79
2021/08/26 02:31:57;;;;;;;;;8.00;8.00;;;;;;;;4999906;28;45345;-79
2021/08/26 02:34:23;;;;;;;;;11.33;10.00;;;;;;;;5005952;28;45321;-79
2021/08/26 02:36:48;;;;;;;;;15.25;11.50;;;;;;;;5007254;28;45392;-79
2021/08/26 02:39:13;;;;;;;;;13.67;11.33;;;;;;;;5003029;28;46348;-79
2021/08/26 02:41:38;;;;;;;;;13.67;12.00;;;;;;;;5002418;28;45290;-79
2021/08/26 02:44:04;;;;;;;;;14.25;11.25;;;;;;;;5003356;28;45676;-79
2021/08/26 02:46:29;;;;;;;;;15.25;13.50;;;;;;;;5003631;28;45317;-79
2021/08/26 02:48:54;;;;;;;;;16.25;12.00;;;;;;;;5020384;28;45380;-78
2021/08/26 02:51:20;;;;;;;;;13.00;11.75;;;;;;;;5021763;28;45335;-78
2021/08/26 02:53:45;;;;;;;;;11.00;11.00;;;;;;;;5022786;28;45242;-78
2021/08/26 02:56:10;;;;;;;;;13.33;12.33;;;;;;;;5021977;28;45457;-79
2021/08/26 02:58:35;;;;;;;;;14.00;11.50;;;;;;;;5021295;28;46379;-78
2021/08/26 03:01:01;;;;;;;;;10.25;10.25;;;;;;;;5002839;28;45500;-78
2021/08/26 03:03:26;;;;;;;;;12.33;9.00;;;;;;;;5002790;28;45393;-79
2021/08/26 03:05:51;;;;;;;;;12.67;7.33;;;;;;;;5011371;28;45784;-78
2021/08/26 03:08:17;;;;;;;;;11.67;8.00;;;;;;;;5002842;28;45499;-79
2021/08/26 03:10:42;;;;;;;;;10.50;8.75;;;;;;;;5002686;28;45615;-79
2021/08/26 03:13:07;;;;;;;;;9.33;7.00;;;;;;;;5003665;28;45152;-79
2021/08/26 03:15:33;;;;;;;;;7.00;5.67;;;;;;;;4984977;28;45190;-79
2021/08/26 03:17:58;;;;;;;;;10.00;6.33;;;;;;;;5010049;28;45430;-79
2021/08/26 03:20:23;;;;;;;;;7.67;6.00;;;;;;;;5002495;28;45295;-79
2021/08/26 03:22:49;;;;;;;;;8.00;7.00;;;;;;;;5009565;28;45482;-79
2021/08/26 03:25:14;;;;;;;;;4.75;4.75;;;;;;;;4984924;28;45249;-79
2021/08/26 03:27:40;;;;;;;;;6.75;5.25;;;;;;;;5002132;28;45227;-78
2021/08/26 03:30:05;;;;;;;;;7.00;5.00;;;;;;;;5002523;28;45222;-78
2021/08/26 03:32:30;;;;;;;;;5.00;4.25;;;;;;;;5002270;28;45500;-79
2021/08/26 03:34:56;;;;;;;;;4.67;3.33;;;;;;;;5002391;28;45377;-79
2021/08/26 03:37:21;;;;;;;;;4.33;4.33;;;;;;;;5012401;28;46714;-78
2021/08/26 03:39:46;;;;;;;;;5.00;3.67;;;;;;;;5002384;28;45393;-78
2021/08/26 03:42:11;;;;;;;;;6.33;4.33;;;;;;;;5002290;28;45135;-78
2021/08/26 03:44:36;;;;;;;;;4.33;4.33;;;;;;;;4984466;28;45444;-80
2021/08/26 03:47:02;;;;;;;;;6.00;6.00;;;;;;;;5011656;28;46272;-80
2021/08/26 03:49:30;;;;;;;;;4.25;4.00;;;;;;;;5021879;28;45445;-80
2021/08/26 03:51:55;;;;;;;;;5.00;3.25;;;;;;;;4999354;28;45433;-80
2021/08/26 03:54:20;;;;;;;;;5.25;4.75;;;;;;;;5002539;28;45428;-78
2021/08/26 03:56:46;;;;;;;;;5.00;5.00;;;;;;;;4984322;28;46029;-78
2021/08/26 03:59:11;;;;;;;;;6.25;3.50;;;;;;;;5003096;28;45337;-78
2021/08/26 04:01:37;;;;;;;;;6.50;4.75;;;;;;;;5002192;28;45306;-78
2021/08/26 04:04:03;;;;;;;;;6.50;4.50;;;;;;;;5002062;28;45460;-78
2021/08/26 04:06:29;;;;;;;;;7.25;6.00;;;;;;;;4993183;28;47583;-78
2021/08/26 04:08:54;;;;;;;;;5.25;4.50;;;;;;;;5009544;28;45146;-78
2021/08/26 04:11:19;;;;;;;;;5.00;5.00;;;;;;;;5001828;28;45186;-78
2021/08/26 04:13:44;;;;;;;;;5.67;5.00;;;;;;;;5002916;28;45134;-78
2021/08/26 04:16:09;;;;;;;;;4.00;4.00;;;;;;;;5001686;28;45297;-78
2021/08/26 04:18:35;;;;;;;;;6.00;3.33;;;;;;;;5001432;28;45415;-78
2021/08/26 04:21:00;;;;;;;;;7.00;5.00;;;;;;;;5000389;28;45235;-78
2021/08/26 04:23:25;;;;;;;;;6.33;5.00;;;;;;;;5011704;28;45222;-78
2021/08/26 04:25:50;;;;;;;;;6.00;4.33;;;;;;;;5001309;28;45182;-78
2021/08/26 04:28:15;;;;;;;;;4.33;4.00;;;;;;;;5001874;28;45340;-78
2021/08/26 04:30:41;;;;;;;;;6.00;4.25;;;;;;;;5002079;28;45255;-78
2021/08/26 04:33:06;;;;;;;;;6.33;5.00;;;;;;;;5001052;28;45535;-78
2021/08/26 04:35:31;;;;;;;;;3.00;3.00;;;;;;;;5000068;28;47062;-78
2021/08/26 04:37:56;;;;;;;;;5.00;4.75;;;;;;;;5007548;28;45287;-80
2021/08/26 04:40:21;;;;;;;;;5.75;3.25;;;;;;;;5002704;28;45386;-78
2021/08/26 04:42:47;;;;;;;;;3.00;3.00;;;;;;;;5000268;28;45619;-77
2021/08/26 04:45:12;;;;;;;;;4.00;4.00;;;;;;;;5015331;28;46288;-78
2021/08/26 04:47:37;;;;;;;;;4.00;3.00;;;;;;;;5020872;28;45426;-77
2021/08/26 04:50:03;;;;;;;;;4.75;3.50;;;;;;;;5021020;28;45226;-79
2021/08/26 04:52:28;;;;;;;;;5.00;4.50;;;;;;;;5019142;28;45370;-80
2021/08/26 04:54:53;;;;;;;;;4.00;4.00;;;;;;;;5010398;28;45487;-77
2021/08/26 04:57:18;;;;;;;;;3.00;3.00;;;;;;;;4999873;28;45416;-77
2021/08/26 04:59:44;;;;;;;;;3.00;2.00;;;;;;;;5002252;28;45253;-78
2021/08/26 05:02:09;;;;;;;;;2.33;2.33;;;;;;;;5000991;28;45555;-80
2021/08/26 05:04:34;;;;;;;;;3.50;1.75;;;;;;;;5000824;28;45445;-80
2021/08/26 05:06:59;;;;;;;;;4.50;3.50;;;;;;;;5000830;28;45297;-77
2021/08/26 05:09:24;;;;;;;;;5.00;3.00;;;;;;;;5012297;28;45301;-80
2021/08/26 05:11:53;;;;;;;;;2.00;2.00;;;;;;;;5001605;28;45295;-77
2021/08/26 05:14:18;;;;;;;;;1.75;1.75;;;;;;;;5001355;28;45431;-78
2021/08/26 05:16:44;;;;;;;;;1.67;1.33;;;;;;;;5001099;28;45290;-78
2021/08/26 05:19:09;;;;;;;;;2.67;1.67;;;;;;;;5000760;28;45235;-79
2021/08/26 05:21:34;;;;;;;;;2.00;2.00;;;;;;;;4983083;28;45323;-78
2021/08/26 05:23:59;;;;;;;;;3.00;2.33;;;;;;;;5006327;28;46205;-78
2021/08/26 05:26:24;;;;;;;;;1.00;1.00;;;;;;;;5020001;28;45234;-78
2021/08/26 05:28:50;;;;;;;;;3.67;2.00;;;;;;;;5002780;28;45217;-78
2021/08/26 05:31:16;;;;;;;;;4.00;2.00;;;;;;;;5020403;28;45233;-78
2021/08/26 05:33:42;;;;;;;;;5.00;2.50;;;;;;;;5002321;28;46300;-79
2021/08/26 05:36:07;;;;;;;;;2.67;2.67;;;;;;;;5019621;28;45514;-79
2021/08/26 05:38:32;;;;;;;;;3.00;2.50;;;;;;;;5015205;28;45339;-79
2021/08/26 05:40:57;;;;;;;;;3.67;2.00;;;;;;;;5011353;28;45419;-79
2021/08/26 05:43:22;;;;;;;;;1.00;1.00;;;;;;;;5003846;28;46333;-79
2021/08/26 05:45:48;;;;;;;;;2.00;1.33;;;;;;;;5019987;28;45413;-79
2021/08/26 05:48:13;;;;;;;;;1.25;1.25;;;;;;;;5000946;28;45506;-79
2021/08/26 05:50:39;;;;;;;;;3.00;1.33;;;;;;;;5009198;28;45250;-79
2021/08/26 05:53:04;;;;;;;;;2.75;2.75;;;;;;;;5000066;28;46080;-79
2021/08/26 05:55:30;;;;;;;;;1.75;1.75;;;;;;;;5012632;28;45305;-79
2021/08/26 05:57:55;;;;;;;;;3.33;2.00;;;;;;;;5015271;28;45324;-79
2021/08/26 06:00:20;;;;;;;;;4.00;2.00;;;;;;;;4984437;28;45533;-79
2021/08/26 06:02:45;;;;;;;;;1.67;0.67;;;;;;;;5011109;28;45668;-79
2021/08/26 06:05:11;;;;;;;;;3.67;2.67;;;;;;;;4995235;28;45781;-79
2021/08/26 06:07:38;;;;;;;;;5.00;3.25;;;;;;;;5019185;28;46334;-79
2021/08/26 06:10:03;;;;;;;;;1.50;1.50;;;;;;;;5020138;28;45364;-79
2021/08/26 06:12:29;;;;;;;;;2.25;2.00;;;;;;;;5013060;28;45736;-78
2021/08/26 06:14:54;;;;;;;;;2.25;1.75;;;;;;;;5010059;28;46295;-79
2021/08/26 06:17:20;;;;;;;;;3.33;3.33;;;;;;;;5014746;28;45462;-79
2021/08/26 06:19:45;;;;;;;;;5.00;2.75;;;;;;;;5022979;28;45230;-79
2021/08/26 06:22:10;;;;;;;;;2.50;2.50;;;;;;;;5015299;28;46234;-79
2021/08/26 06:24:35;;;;;;;;;2.67;2.33;;;;;;;;5012493;28;45473;-79
2021/08/26 06:27:02;;;;;;;;;2.33;2.33;;;;;;;;5004973;28;45479;-79
2021/08/26 06:29:27;;;;;;;;;4.00;2.00;;;;;;;;5012674;28;45340;-79
2021/08/26 06:31:53;;;;;;;;;4.25;2.50;;;;;;;;5003122;28;45486;-78
2021/08/26 06:34:18;;;;;;;;;3.33;2.67;;;;;;;;5007748;28;45421;-79
2021/08/26 06:36:43;;;;;;;;;6.50;4.00;;;;;;;;5014084;28;45450;-79
2021/08/26 06:39:08;;;;;;;;;4.50;2.00;;;;;;;;5006628;28;45467;-78
2021/08/26 06:41:34;;;;;;;;;5.33;3.00;;;;;;;;5016440;28;45486;-78
2021/08/26 06:43:59;;;;;;;;;3.75;3.75;;;;;;;;5023285;28;45719;-78
2021/08/26 06:46:24;;;;;;;;;3.00;3.00;;;;;;;;4998835;28;45550;-79
2021/08/26 06:48:51;;;;;;;;;3.75;3.75;;;;;;;;5012981;28;45368;-79
2021/08/26 06:51:16;;;;;;;;;3.50;3.00;;;;;;;;5014869;28;46232;-78
2021/08/26 06:53:41;;;;;;;;;6.00;3.00;;;;;;;;5018985;28;45486;-79
2021/08/26 06:56:06;;;;;;;;;4.00;2.00;;;;;;;;5016868;28;45518;-79
2021/08/26 06:58:32;;;;;;;;;5.33;2.00;;;;;;;;5017597;28;45532;-79
2021/08/26 07:00:58;;;;;;;;;2.00;1.00;;;;;;;;5022067;28;45515;-79
2021/08/26 07:03:23;;;;;;;;;5.50;3.00;;;;;;;;5014035;28;45362;-79
2021/08/26 07:05:48;;;;;;;;;5.50;2.00;;;;;;;;5013552;28;45461;-79
2021/08/26 07:08:13;;;;;;;;;6.00;3.33;;;;;;;;5010210;28;45473;-79
2021/08/26 07:10:38;;;;;;;;;6.00;3.67;;;;;;;;5020203;28;46426;-79
2021/08/26 07:13:04;;;;;;;;;5.00;3.00;;;;;;;;5013186;28;45201;-79
2021/08/26 07:15:29;;;;;;;;;4.33;2.67;;;;;;;;4995770;28;45292;-79
2021/08/26 07:17:54;;;;;;;;;10.00;5.50;;;;;;;;5016608;28;45328;-79
2021/08/26 07:20:20;;;;;;;;;9.50;5.00;;;;;;;;5014960;28;45426;-78
2021/08/26 07:22:45;;;;;;;;;7.25;5.75;;;;;;;;5023683;28;45626;-78
2021/08/26 07:25:10;;;;;;;;;10.25;8.25;;;;;;;;5010085;28;45518;-79
2021/08/26 07:27:36;;;;;;;;;8.00;7.00;;;;;;;;5012289;28;45309;-79
2021/08/26 07:30:01;;;;;;;;;7.00;7.00;;;;;;;;5018087;28;46750;-79
2021/08/26 07:32:26;;;;;;;;;8.50;6.00;;;;;;;;5011627;28;45296;-79
2021/08/26 07:34:52;;;;;;;;;5.67;3.00;;;;;;;;5011435;28;46042;-79
2021/08/26 07:37:17;;;;;;;;;5.00;5.00;;;;;;;;5014541;28;45588;-79
2021/08/26 07:39:44;;;;;;;;;5.25;5.25;;;;;;;;5018113;28;46912;-79
2021/08/26 07:42:09;;;;;;;;;5.25;4.00;;;;;;;;5010296;28;45456;-79
2021/08/26 07:44:34;;;;;;;;;4.67;4.00;;;;;;;;5017621;28;45420;-78
2021/08/26 07:46:59;;;;;;;;;6.00;4.75;;;;;;;;5010619;28;45553;-78
2021/08/26 07:49:25;;;;;;;;;5.00;5.00;;;;;;;;5013723;28;46406;-78
2021/08/26 07:51:50;;;;;;;;;9.00;5.00;;;;;;;;5015149;28;45365;-78
2021/08/26 07:54:15;;;;;;;;;12.00;4.50;;;;;;;;5015261;28;45664;-78
2021/08/26 07:56:40;;;;;;;;;5.75;4.00;;;;;;;;4996316;28;45700;-78
2021/08/26 07:59:06;;;;;;;;;3.33;3.33;;;;;;;;5014651;28;45523;-78
2021/08/26 08:01:31;;;;;;;;;5.00;3.00;;;;;;;;5011492;28;45444;-78
2021/08/26 08:03:56;;;;;;;;;7.00;5.00;;;;;;;;5018558;28;46903;-78
2021/08/26 08:06:21;;;;;;;;;6.75;6.75;;;;;;;;4996894;28;45455;-78
2021/08/26 08:08:46;;;;;;;;;3.00;3.00;;;;;;;;5010918;28;45961;-78
2021/08/26 08:11:12;;;;;;;;;4.67;3.00;;;;;;;;5010325;28;45473;-78
2021/08/26 08:13:37;;;;;;;;;8.00;5.67;;;;;;;;5012303;28;46679;-78
2021/08/26 08:16:04;;;;;;;;;6.50;6.00;;;;;;;;5014183;28;45304;-78
2021/08/26 08:18:29;;;;;;;;;8.75;5.00;;;;;;;;5013526;28;46021;-79
2021/08/26 08:20:54;;;;;;;;;6.67;6.00;;;;;;;;5012309;28;45398;-78
2021/08/26 08:23:19;;;;;;;;;5.75;4.25;;;;;;;;5012593;28;45426;-78
2021/08/26 08:25:45;;;;;;;;;7.33;4.67;;;;;;;;5015022;28;45327;-79
2021/08/26 08:28:11;;;;;;;;;6.75;5.75;;;;;;;;5012767;28;45446;-78
2021/08/26 08:30:37;;;;;;;;;6.00;6.00;;;;;;;;5013033;28;45723;-78
2021/08/26 08:33:02;;;;;;;;;5.50;5.25;;;;;;;;5012221;28;45567;-78
2021/08/26 08:35:27;;;;;;;;;6.25;6.00;;;;;;;;5010910;28;45618;-78
2021/08/26 08:37:52;;;;;;;;;9.00;6.00;;;;;;;;5013664;28;46582;-78
2021/08/26 08:40:18;;;;;;;;;4.00;4.00;;;;;;;;5012897;28;45870;-78
2021/08/26 08:42:43;;;;;;;;;5.00;4.67;;;;;;;;5012913;28;45462;-78
2021/08/26 08:45:09;;;;;;;;;8.75;6.50;;;;;;;;5011809;28;45686;-78
2021/08/26 08:47:35;;;;;;;;;6.25;6.00;;;;;;;;5015909;28;45537;-78
2021/08/26 08:50:01;;;;;;;;;8.75;6.50;;;;;;;;5012108;28;45499;-78
2021/08/26 08:52:27;;;;;;;;;6.00;4.75;;;;;;;;5015803;28;45541;-79
2021/08/26 08:54:53;;;;;;;;;8.50;5.25;;;;;;;;5013547;28;45508;-79
2021/08/26 08:57:19;;;;;;;;;8.25;6.75;;;;;;;;5012141;28;46398;-79
2021/08/26 08:59:44;;;;;;;;;11.50;9.50;;;;;;;;5014538;28;45684;-79
2021/08/26 09:02:09;;;;;;;;;11.00;9.00;;;;;;;;5016244;28;45317;-79
2021/08/26 09:04:52;;;;;;;;;8.25;5.50;;;;;;;;5012535;28;45844;-79
2021/08/26 09:07:28;;;;;;;;;10.00;8.50;;;;;;;;5012418;28;45703;-79
2021/08/26 09:09:54;;;;;;;;;8.00;6.00;;;;;;;;5009290;28;45545;-79
2021/08/26 09:12:40;;;;;;;;;6.50;5.75;;;;;;;;5013761;28;45441;-79
2021/08/26 09:15:08;;;;;;;;;7.50;5.00;;;;;;;;5005291;28;46972;-80
2021/08/26 09:17:35;;;;;;;;;6.75;6.00;;;;;;;;5014185;28;47690;-80
2021/08/26 09:20:04;;;;;;;;;8.00;4.75;;;;;;;;4997266;28;45510;-79
2021/08/26 09:22:31;;;;;;;;;8.00;5.25;;;;;;;;5012959;28;45338;-78
2021/08/26 09:24:56;;;;;;;;;5.00;5.00;;;;;;;;5016512;28;45576;-78
2021/08/26 09:27:31;;;;;;;;;5.00;4.00;;;;;;;;5010820;28;45461;-78
2021/08/26 09:29:59;;;;;;;;;5.00;3.00;;;;;;;;5012039;28;46424;-77
2021/08/26 09:32:35;;;;;;;;;2.25;2.25;;;;;;;;5010185;28;45470;-78
2021/08/26 09:35:20;;;;;;;;;3.25;3.00;;;;;;;;5015944;28;45466;-78
2021/08/26 09:37:48;;;;;;;;;10.00;8.50;;;;;;;;5007874;28;45796;-78
2021/08/26 09:40:15;;;;;;;;;3.50;3.00;;;;;;;;4994183;28;45442;-78
2021/08/26 09:42:40;;;;;;;;;5.75;4.75;;;;;;;;5015320;28;45583;-78
2021/08/26 09:45:16;;;;;;;;;4.33;3.67;;;;;;;;4994572;28;45742;-78
2021/08/26 09:47:56;;;;;;;;;3.25;2.75;;;;;;;;5010860;28;45617;-78
2021/08/26 09:50:40;;;;;;;;;3.00;3.00;;;;;;;;5011595;28;45409;-79
2021/08/26 09:53:05;;;;;;;;;5.00;4.50;;;;;;;;4990157;28;45456;-78
2021/08/26 09:55:49;;;;;;;;;4.00;3.00;;;;;;;;5012725;28;45795;-78
2021/08/26 09:58:18;;;;;;;;;6.00;4.25;;;;;;;;5007375;28;45575;-78
2021/08/26 10:00:44;;;;;;;;;5.00;5.00;;;;;;;;5013867;28;45355;-78
2021/08/26 10:03:12;;;;;;;;;3.25;3.25;;;;;;;;5013111;28;45320;-79
2021/08/26 10:05:43;;;;;;;;;4.25;2.75;;;;;;;;5013730;28;45482;-79
2021/08/26 10:08:09;;;;;;;;;3.50;2.00;;;;;;;;5012169;28;45522;-79
2021/08/26 10:10:35;;;;;;;;;3.00;3.00;;;;;;;;5008589;28;45308;-79
2021/08/26 10:13:00;;;;;;;;;8.25;3.00;;;;;;;;5012554;28;45263;-79
2021/08/26 10:15:25;;;;;;;;;3.75;3.75;;;;;;;;5014263;28;45572;-79
2021/08/26 10:17:51;;;;;;;;;4.25;3.00;;;;;;;;5009197;28;46582;-79
2021/08/26 10:20:17;;;;;;;;;3.00;3.00;;;;;;;;5009650;28;45774;-79
2021/08/26 10:22:42;;;;;;;;;4.00;3.00;;;;;;;;5013308;28;45820;-79
2021/08/26 10:25:07;;;;;;;;;3.67;2.67;;;;;;;;4998251;28;45586;-79
2021/08/26 10:27:33;;;;;;;;;3.25;2.50;;;;;;;;5013390;28;45890;-79
2021/08/26 10:29:58;;;;;;;;;6.00;3.25;;;;;;;;5009147;28;45633;-79
2021/08/26 10:32:24;;;;;;;;;4.25;4.00;;;;;;;;4993565;28;45592;-79
2021/08/26 10:35:08;;;;;;;;;3.50;3.50;;;;;;;;5005923;28;48572;-79
2021/08/26 10:37:49;;;;;;;;;3.75;3.50;;;;;;;;5008890;28;46470;-79
2021/08/26 10:40:29;;;;;;;;;3.00;3.00;;;;;;;;5010285;28;46681;-80
2021/08/26 10:42:55;;;;;;;;;3.00;2.50;;;;;;;;5005709;28;45449;-78
2021/08/26 10:45:24;;;;;;;;;3.00;1.25;;;;;;;;5007149;28;45653;-80
2021/08/26 10:47:50;;;;;;;;;4.75;3.00;;;;;;;;4991281;28;48098;-79
2021/08/26 10:50:25;;;;;;;;;2.75;2.75;;;;;;;;5013277;28;45526;-80
2021/08/26 10:52:58;;;;;;;;;4.00;2.00;;;;;;;;5014794;28;45412;-79
2021/08/26 10:55:43;;;;;;;;;3.75;3.00;;;;;;;;5011037;28;45503;-79
2021/08/26 10:58:20;;;;;;;;;3.25;3.00;;;;;;;;5012187;28;45323;-79
2021/08/26 11:00:46;;;;;;;;;2.00;0.75;;;;;;;;5015037;28;45217;-80
2021/08/26 11:03:31;;;;;;;;;2.25;2.25;;;;;;;;5015486;28;45245;-79
2021/08/26 11:05:56;;;;;;;;;7.50;5.25;;;;;;;;5013455;28;45500;-80
2021/08/26 11:08:29;;;;;;;;;3.00;3.00;;;;;;;;5015546;28;45575;-79
2021/08/26 11:10:54;;;;;;;;;3.75;3.00;;;;;;;;5018668;28;45309;-80
2021/08/26 11:13:34;;;;;;;;;5.00;2.00;;;;;;;;5018510;28;45463;-80
2021/08/26 11:16:18;;;;;;;;;3.00;3.00;;;;;;;;5017350;28;45471;-79
2021/08/26 11:18:43;;;;;;;;;3.00;3.00;;;;;;;;5012574;28;46746;-79
2021/08/26 11:21:08;;;;;;;;;5.00;3.00;;;;;;;;5016884;28;45490;-79
2021/08/26 11:23:45;;;;;;;;;4.00;4.00;;;;;;;;5002246;28;45411;-79
2021/08/26 11:26:29;;;;;;;;;5.75;4.00;;;;;;;;5010239;28;45348;-79
2021/08/26 11:28:54;;;;;;;;;6.00;4.25;;;;;;;;5017905;28;45803;-79
2021/08/26 11:31:20;;;;;;;;;5.00;5.00;;;;;;;;5019963;28;45476;-79
2021/08/26 11:33:46;;;;;;;;;4.50;4.50;;;;;;;;5015547;28;45455;-80
2021/08/26 11:36:12;;;;;;;;;6.50;4.75;;;;;;;;5009266;28;45571;-79
2021/08/26 11:38:45;;;;;;;;;7.25;6.00;;;;;;;;4994144;28;48572;-79
2021/08/26 11:41:10;;;;;;;;;7.50;4.25;;;;;;;;5009473;28;45510;-79
2021/08/26 11:43:39;;;;;;;;;7.00;6.00;;;;;;;;4996144;28;45437;-79
2021/08/26 11:46:09;;;;;;;;;6.25;5.00;;;;;;;;5013911;28;45373;-79
2021/08/26 11:48:34;;;;;;;;;4.00;3.00;;;;;;;;5010012;28;45603;-79
2021/08/26 11:51:02;;;;;;;;;5.00;4.33;;;;;;;;5013323;28;45441;-79
2021/08/26 11:53:27;;;;;;;;;4.50;4.25;;;;;;;;4998096;28;45475;-79
2021/08/26 11:55:55;;;;;;;;;7.33;4.00;;;;;;;;5014221;28;45448;-80
2021/08/26 11:58:20;;;;;;;;;3.00;3.00;;;;;;;;5014131;28;46603;-80
2021/08/26 12:00:50;;;;;;;;;7.00;5.00;;;;;;;;5011870;28;45357;-79
2021/08/26 12:03:15;;;;;;;;;3.25;3.00;;;;;;;;5007401;28;45404;-79
2021/08/26 12:05:41;;;;;;;;;4.00;4.00;;;;;;;;5013012;28;45392;-79
2021/08/26 12:08:07;;;;;;;;;5.50;4.00;;;;;;;;4995384;28;47807;-79
2021/08/26 12:10:33;;;;;;;;;7.00;4.00;;;;;;;;5016653;28;45645;-78
2021/08/26 12:13:02;;;;;;;;;7.25;3.75;;;;;;;;5018829;28;46368;-77
2021/08/26 12:15:31;;;;;;;;;5.00;4.00;;;;;;;;5015919;28;45634;-77
2021/08/26 12:18:05;;;;;;;;;5.00;5.00;;;;;;;;5013184;28;45341;-78
2021/08/26 12:20:35;;;;;;;;;5.75;5.75;;;;;;;;5013719;28;45414;-80
2021/08/26 12:23:01;;;;;;;;;4.50;3.50;;;;;;;;5011744;28;45499;-79
2021/08/26 12:25:31;;;;;;;;;6.00;4.50;;;;;;;;5013609;28;45579;-80
2021/08/26 12:27:59;;;;;;;;;8.75;5.00;;;;;;;;5013817;28;45405;-80
2021/08/26 12:30:35;;;;;;;;;5.25;4.50;;;;;;;;5009866;28;45341;-80
2021/08/26 12:33:12;;;;;;;;;11.00;9.25;;;;;;;;5011639;28;45534;-79
2021/08/26 12:35:39;;;;;;;;;7.25;6.00;;;;;;;;5012165;28;45483;-80
2021/08/26 12:38:04;;;;;;;;;8.25;6.00;;;;;;;;5012231;28;45519;-79
2021/08/26 12:40:50;;;;;;;;;7.25;5.50;;;;;;;;5015070;28;45527;-79
2021/08/26 12:43:16;;;;;;;;;6.25;5.75;;;;;;;;5011944;28;45475;-79
2021/08/26 12:45:41;;;;;;;;;10.00;6.75;;;;;;;;4994914;28;45909;-79
2021/08/26 12:48:19;;;;;;;;;6.00;4.67;;;;;;;;5017176;28;46593;-79
2021/08/26 12:50:44;;;;;;;;;7.00;7.00;;;;;;;;5009636;28;45536;-79
2021/08/26 12:53:16;;;;;;;;;6.33;5.67;;;;;;;;5011318;28;45767;-83
2021/08/26 12:55:55;;;;;;;;;9.75;7.25;;;;;;;;5011027;28;46685;-81
2021/08/26 12:58:20;;;;;;;;;7.50;5.00;;;;;;;;5013278;28;46284;-81
2021/08/26 13:00:46;;;;;;;;;8.33;7.33;;;;;;;;5013672;28;45317;-81
2021/08/26 13:03:11;;;;;;;;;7.00;6.00;;;;;;;;5008843;28;45374;-80
2021/08/26 13:05:46;;;;;;;;;9.00;7.00;;;;;;;;5012995;28;45251;-81
2021/08/26 13:08:12;;;;;;;;;9.00;7.00;;;;;;;;4993891;28;47530;-81
2021/08/26 13:10:37;;;;;;;;;8.25;7.00;;;;;;;;5012430;28;44819;-81
2021/08/26 13:13:12;;;;;;;;;7.75;6.75;;;;;;;;5011745;28;45440;-81
2021/08/26 13:15:38;;;;;;;;;5.75;5.00;;;;;;;;5010728;28;45490;-81
2021/08/26 13:18:04;;;;;;;;;7.75;5.75;;;;;;;;4993422;28;47246;-80
2021/08/26 13:20:29;;;;;;;;;7.25;6.25;;;;;;;;5014683;28;45724;-81
2021/08/26 13:22:55;;;;;;;;;6.25;5.75;;;;;;;;5015608;28;45296;-81
2021/08/26 13:25:20;;;;;;;;;5.50;5.50;;;;;;;;4994414;28;47286;-80
2021/08/26 13:27:46;;;;;;;;;9.00;6.00;;;;;;;;5015000;28;45648;-77
2021/08/26 13:30:13;;;;;;;;;7.50;5.00;;;;;;;;5014062;28;45384;-80
2021/08/26 13:32:39;;;;;;;;;7.25;5.75;;;;;;;;5015768;28;45277;-80
2021/08/26 13:35:09;;;;;;;;;9.00;8.75;;;;;;;;5007044;28;45519;-80
2021/08/26 13:37:38;;;;;;;;;7.00;5.00;;;;;;;;5013762;28;45622;-80
2021/08/26 13:40:04;;;;;;;;;6.75;6.75;;;;;;;;5011461;28;45582;-80
2021/08/26 13:42:29;;;;;;;;;8.50;6.50;;;;;;;;5010949;28;45313;-80
2021/08/26 13:44:54;;;;;;;;;8.00;5.00;;;;;;;;4994032;28;45453;-80
2021/08/26 13:47:20;;;;;;;;;7.33;5.33;;;;;;;;5014509;28;46014;-81
2021/08/26 13:49:45;;;;;;;;;7.00;5.00;;;;;;;;5009526;28;45362;-80
2021/08/26 13:52:10;;;;;;;;;7.50;7.00;;;;;;;;5011951;28;45453;-80
2021/08/26 13:54:35;;;;;;;;;10.67;5.67;;;;;;;;5011206;28;45539;-80
2021/08/26 13:57:01;;;;;;;;;10.50;8.50;;;;;;;;5015437;28;45436;-80
2021/08/26 13:59:26;;;;;;;;;9.50;6.25;;;;;;;;5007230;28;45295;-80
2021/08/26 14:01:51;;;;;;;;;10.67;10.33;;;;;;;;4993158;28;45444;-80
2021/08/26 14:04:16;;;;;;;;;9.75;7.75;;;;;;;;4995180;28;45282;-80
2021/08/26 14:06:42;;;;;;;;;10.00;8.25;;;;;;;;4991079;28;47125;-80
2021/08/26 14:09:07;;;;;;;;;9.00;7.75;;;;;;;;5002529;28;45799;-80
2021/08/26 14:11:32;;;;;;;;;7.75;6.00;;;;;;;;5015032;28;46032;-80
2021/08/26 14:13:58;;;;;;;;;7.67;6.00;;;;;;;;5005346;28;45460;-80
2021/08/26 14:16:23;;;;;;;;;11.00;8.00;;;;;;;;5012724;28;47481;-80
2021/08/26 14:18:48;;;;;;;;;7.50;7.50;;;;;;;;5004709;28;46895;-79
2021/08/26 14:21:13;;;;;;;;;7.25;6.75;;;;;;;;5011694;28;45295;-83
2021/08/26 14:23:39;;;;;;;;;5.75;5.75;;;;;;;;5000357;28;45538;-80
2021/08/26 14:26:05;;;;;;;;;7.00;7.00;;;;;;;;5003118;28;46830;-80
2021/08/26 14:28:31;;;;;;;;;9.00;6.75;;;;;;;;5018316;28;45468;-80
2021/08/26 14:30:56;;;;;;;;;7.75;7.25;;;;;;;;5018746;28;45814;-79
2021/08/26 14:33:21;;;;;;;;;10.25;7.25;;;;;;;;5019746;28;45685;-79
2021/08/26 14:35:47;;;;;;;;;7.25;6.25;;;;;;;;5021728;28;46223;-79
2021/08/26 14:38:13;;;;;;;;;9.00;9.00;;;;;;;;5010893;28;45425;-79
2021/08/26 14:40:39;;;;;;;;;9.00;7.50;;;;;;;;5002044;28;45403;-79
2021/08/26 14:43:04;;;;;;;;;7.75;6.25;;;;;;;;5018840;28;45283;-79